Time;durP1;ratioP1;P1;durP2;ratioP2;P2;SDS_P1;SDS_P2;PMS_P1;PMS_P2;Temp;Humidity;BMP_temperature;BMP_pressure;BME280_temperature;BME280_humidity;BME280_pressure;Samples;Min_cycle;Max_cycle;Signal;HPM_P1;HPM_P2
2023/07/22 00:02:23;;;;;;;6.18;2.40;;;23.10;92.70;;;;;;5072589;28;20024;-72
2023/07/22 00:04:50;;;;;;;8.65;2.20;;;23.00;92.60;;;;;;5072388;28;20173;-71
2023/07/22 00:07:16;;;;;;;5.63;2.40;;;23.10;92.50;;;;;;5075927;28;20036;-72
2023/07/22 00:09:43;;;;;;;3.45;2.10;;;23.10;92.50;;;;;;5076363;28;20051;-72
2023/07/22 00:12:09;;;;;;;8.98;2.17;;;23.10;92.60;;;;;;5076238;28;20024;-72
2023/07/22 00:14:40;;;;;;;4.90;2.45;;;23.10;92.60;;;;;;5076144;28;20107;-72
2023/07/22 00:17:07;;;;;;;9.40;2.30;;;23.00;92.60;;;;;;5076019;28;20123;-72
2023/07/22 00:19:33;;;;;;;13.32;2.47;;;23.00;92.90;;;;;;5075859;28;20099;-72
2023/07/22 00:21:59;;;;;;;7.22;2.70;;;23.00;93.10;;;;;;5075932;28;20351;-71
2023/07/22 00:24:25;;;;;;;6.88;2.45;;;23.00;93.30;;;;;;5076035;28;20443;-72
2023/07/22 00:26:51;;;;;;;7.22;2.70;;;23.00;93.40;;;;;;5076039;28;20103;-72
2023/07/22 00:29:17;;;;;;;10.30;2.58;;;23.00;93.40;;;;;;5075908;28;20068;-72
2023/07/22 00:31:43;;;;;;;7.05;2.60;;;23.00;93.30;;;;;;5075560;28;20028;-72
2023/07/22 00:34:09;;;;;;;8.43;2.50;;;22.90;93.20;;;;;;5076045;28;20464;-72
2023/07/22 00:36:37;;;;;;;8.77;2.60;;;22.90;93.10;;;;;;5075975;28;20021;-72
2023/07/22 00:39:04;;;;;;;9.18;2.28;;;22.90;93.10;;;;;;5075939;28;20463;-72
2023/07/22 00:41:30;;;;;;;6.90;2.42;;;22.80;93.10;;;;;;5075791;28;20020;-72
2023/07/22 00:43:56;;;;;;;9.25;2.28;;;22.80;93.00;;;;;;5075484;28;20036;-72
2023/07/22 00:46:22;;;;;;;5.43;2.35;;;22.80;92.90;;;;;;5075295;28;20536;-72
2023/07/22 00:48:49;;;;;;;6.72;2.53;;;22.80;92.80;;;;;;5075582;28;20096;-72
2023/07/22 00:51:15;;;;;;;8.90;2.50;;;22.70;92.80;;;;;;5075519;28;20021;-72
2023/07/22 00:53:41;;;;;;;5.57;2.50;;;22.70;92.70;;;;;;5075467;28;20024;-71
2023/07/22 00:56:07;;;;;;;4.28;2.05;;;22.70;92.60;;;;;;5075413;28;20025;-72
2023/07/22 00:58:33;;;;;;;10.35;2.47;;;22.70;92.50;;;;;;5073185;28;20131;-72
2023/07/22 01:00:59;;;;;;;5.80;2.30;;;22.70;92.40;;;;;;5072515;28;20028;-72
2023/07/22 01:03:25;;;;;;;6.63;2.05;;;22.60;92.40;;;;;;5072336;28;20088;-72
2023/07/22 01:05:53;;;;;;;4.40;2.33;;;22.60;92.30;;;;;;5074521;28;20025;-72
2023/07/22 01:08:19;;;;;;;4.65;2.20;;;22.60;92.40;;;;;;5075059;28;20114;-72
2023/07/22 01:10:45;;;;;;;6.55;2.17;;;22.60;92.40;;;;;;5075063;28;20060;-72
2023/07/22 01:13:10;;;;;;;5.97;2.30;;;22.50;92.30;;;;;;5074937;28;20028;-72
2023/07/22 01:15:38;;;;;;;7.53;2.15;;;22.50;92.20;;;;;;5075069;28;20157;-72
2023/07/22 01:18:04;;;;;;;11.02;1.95;;;22.50;92.10;;;;;;5073769;28;20106;-72
2023/07/22 01:20:30;;;;;;;5.47;2.20;;;22.50;92.00;;;;;;5074680;28;20028;-72
2023/07/22 01:22:56;;;;;;;6.05;2.10;;;22.50;92.10;;;;;;5074760;28;20096;-72
2023/07/22 01:25:23;;;;;;;6.30;2.20;;;22.50;92.10;;;;;;5074453;28;20386;-72
2023/07/22 01:27:52;;;;;;;6.75;2.53;;;22.40;92.20;;;;;;5074473;28;20429;-72
2023/07/22 01:30:19;;;;;;;10.18;2.10;;;22.40;92.20;;;;;;5074407;28;20450;-72
2023/07/22 01:32:46;;;;;;;7.97;2.72;;;22.40;92.20;;;;;;5074357;28;20481;-72
2023/07/22 01:35:12;;;;;;;6.55;2.17;;;22.40;92.30;;;;;;5074446;28;20391;-72
2023/07/22 01:37:37;;;;;;;5.05;2.15;;;22.40;92.30;;;;;;5074528;28;20028;-72
2023/07/22 01:40:13;;;;;;;7.03;2.25;;;22.40;92.40;;;;;;5074613;28;20482;-72
2023/07/22 01:42:42;;;;;;;10.55;2.42;;;22.30;92.70;;;;;;5074720;28;20434;-72
2023/07/22 01:45:10;;;;;;;3.60;2.13;;;22.30;92.40;;;;;;5074313;28;20038;-72
2023/07/22 01:47:36;;;;;;;5.10;1.83;;;22.30;92.50;;;;;;5074022;28;20367;-72
2023/07/22 01:50:06;;;;;;;3.60;2.22;;;22.30;92.50;;;;;;5074360;28;20367;-72
2023/07/22 01:52:32;;;;;;;5.15;2.10;;;22.30;92.60;;;;;;5074498;28;20024;-72
2023/07/22 01:54:58;;;;;;;3.67;2.17;;;22.30;92.60;;;;;;5074350;28;20367;-72
2023/07/22 01:57:24;;;;;;;5.55;2.30;;;22.30;92.30;;;;;;5074078;28;20117;-72
2023/07/22 01:59:50;;;;;;;4.80;2.22;;;22.30;92.20;;;;;;5074079;28;20025;-71
2023/07/22 02:02:16;;;;;;;8.57;2.15;;;22.30;92.30;;;;;;5074273;28;20024;-72
2023/07/22 02:04:42;;;;;;;4.57;2.22;;;22.30;92.50;;;;;;5073992;28;20099;-72
2023/07/22 02:07:08;;;;;;;5.95;2.35;;;22.20;92.50;;;;;;5073782;28;20020;-71
2023/07/22 02:09:34;;;;;;;8.88;2.67;;;22.20;92.60;;;;;;5073901;28;20028;-72
2023/07/22 02:12:00;;;;;;;5.47;2.40;;;22.20;92.70;;;;;;5073726;28;20031;-72
2023/07/22 02:14:26;;;;;;;10.23;2.50;;;22.10;92.70;;;;;;5073932;28;20021;-72
2023/07/22 02:16:52;;;;;;;4.10;2.47;;;22.10;92.70;;;;;;5073697;28;20048;-72
2023/07/22 02:19:18;;;;;;;6.32;2.10;;;22.10;92.80;;;;;;5073751;28;20431;-72
2023/07/22 02:21:43;;;;;;;5.72;2.33;;;22.10;92.90;;;;;;5073892;28;20029;-72
2023/07/22 02:24:10;;;;;;;8.55;2.85;;;22.00;93.00;;;;;;5073529;28;20028;-72
2023/07/22 02:26:37;;;;;;;10.13;2.30;;;22.00;92.90;;;;;;5073418;28;20068;-72
2023/07/22 02:29:03;;;;;;;6.95;2.40;;;22.00;92.90;;;;;;5073299;28;20514;-72
2023/07/22 02:31:29;;;;;;;8.10;2.58;;;22.00;92.90;;;;;;5055707;28;20037;-72
2023/07/22 02:33:55;;;;;;;6.28;2.25;;;22.00;93.10;;;;;;5073564;28;20028;-72
2023/07/22 02:36:20;;;;;;;7.40;2.53;;;21.90;93.10;;;;;;5073783;28;20035;-71
2023/07/22 02:38:46;;;;;;;6.70;2.60;;;22.00;93.10;;;;;;5073627;28;20020;-72
2023/07/22 02:41:12;;;;;;;8.20;2.63;;;21.90;93.20;;;;;;5055457;28;20478;-72
2023/07/22 02:43:38;;;;;;;7.60;2.72;;;21.90;93.20;;;;;;5073356;28;20020;-72
2023/07/22 02:46:07;;;;;;;7.18;2.45;;;21.90;93.30;;;;;;5073815;28;20035;-73
2023/07/22 02:48:34;;;;;;;9.35;2.35;;;21.90;93.40;;;;;;5073091;28;20039;-72
2023/07/22 02:51:07;;;;;;;5.10;2.40;;;21.80;93.40;;;;;;5073258;28;20051;-71
2023/07/22 02:53:34;;;;;;;4.28;1.98;;;21.80;93.40;;;;;;5073051;28;20443;-72
2023/07/22 02:56:00;;;;;;;3.88;1.95;;;21.80;93.30;;;;;;5072885;28;20028;-72
2023/07/22 02:58:26;;;;;;;5.47;2.10;;;21.80;93.30;;;;;;5073092;28;20050;-72
2023/07/22 03:00:52;;;;;;;3.53;2.13;;;21.80;93.30;;;;;;5073175;28;20107;-72
2023/07/22 03:03:18;;;;;;;7.00;2.22;;;21.80;93.40;;;;;;5073082;28;20032;-72
2023/07/22 03:05:45;;;;;;;5.32;2.13;;;21.80;93.30;;;;;;5073044;28;20501;-72
2023/07/22 03:08:11;;;;;;;8.68;2.13;;;21.80;93.20;;;;;;5072685;28;20048;-72
2023/07/22 03:10:37;;;;;;;2.95;1.65;;;21.70;93.20;;;;;;5072891;28;20118;-72
2023/07/22 03:13:03;;;;;;;8.52;2.55;;;21.70;93.20;;;;;;5072873;28;20070;-72
2023/07/22 03:15:28;;;;;;;6.22;2.08;;;21.70;93.20;;;;;;5072897;28;20107;-72
2023/07/22 03:17:59;;;;;;;7.25;2.22;;;21.70;93.20;;;;;;5072712;28;20049;-72
2023/07/22 03:20:27;;;;;;;9.65;2.20;;;21.70;93.10;;;;;;5072532;28;20032;-72
2023/07/22 03:22:54;;;;;;;3.75;1.90;;;21.70;93.10;;;;;;5072564;28;20060;-72
2023/07/22 03:25:20;;;;;;;6.13;2.20;;;21.70;93.10;;;;;;5072755;28;20024;-72
2023/07/22 03:27:46;;;;;;;5.75;1.98;;;21.70;93.10;;;;;;5072655;28;20025;-72
2023/07/22 03:30:14;;;;;;;5.50;2.33;;;21.60;92.90;;;;;;5072568;28;20024;-73
2023/07/22 03:32:52;;;;;;;6.57;2.10;;;21.70;93.00;;;;;;5072497;28;20021;-72
2023/07/22 03:35:18;;;;;;;5.72;1.90;;;21.60;93.00;;;;;;5072498;28;20078;-72
2023/07/22 03:37:44;;;;;;;12.82;2.15;;;21.60;93.00;;;;;;5072680;28;20017;-72
2023/07/22 03:40:14;;;;;;;7.13;2.10;;;21.60;93.00;;;;;;5073256;28;20025;-72
2023/07/22 03:42:40;;;;;;;7.25;2.03;;;21.60;93.10;;;;;;5076731;28;20470;-72
2023/07/22 03:45:07;;;;;;;12.23;2.08;;;21.50;93.20;;;;;;5076698;28;20043;-72
2023/07/22 03:47:33;;;;;;;9.88;2.30;;;21.60;93.20;;;;;;5076470;28;20024;-72
2023/07/22 03:49:59;;;;;;;4.18;2.08;;;21.60;93.20;;;;;;5076517;28;20039;-72
2023/07/22 03:52:24;;;;;;;5.13;2.25;;;21.50;93.10;;;;;;5076692;28;20028;-72
2023/07/22 03:54:50;;;;;;;10.40;3.50;;;21.50;93.20;;;;;;5076307;28;20413;-72
2023/07/22 03:57:16;;;;;;;7.28;2.50;;;21.50;93.20;;;;;;5076524;28;20012;-72
2023/07/22 03:59:42;;;;;;;6.57;2.72;;;21.50;93.20;;;;;;5076088;28;20033;-72
2023/07/22 04:02:07;;;;;;;7.05;2.05;;;21.50;93.20;;;;;;5076226;28;20035;-72
2023/07/22 04:04:33;;;;;;;7.72;2.20;;;21.40;93.20;;;;;;5076235;28;20682;-72
2023/07/22 04:06:59;;;;;;;6.80;2.40;;;21.40;93.30;;;;;;5075982;28;20025;-72
2023/07/22 04:09:27;;;;;;;7.55;2.13;;;21.40;93.30;;;;;;5076220;28;20450;-72
2023/07/22 04:11:53;;;;;;;10.48;2.60;;;21.40;93.20;;;;;;5076381;28;20497;-72
2023/07/22 04:14:19;;;;;;;10.45;2.38;;;21.30;93.10;;;;;;5076203;28;20020;-72
2023/07/22 04:16:44;;;;;;;4.40;2.13;;;21.30;93.30;;;;;;5075964;28;20033;-72
2023/07/22 04:19:10;;;;;;;7.93;2.45;;;21.30;93.30;;;;;;5075825;28;20482;-72
2023/07/22 04:21:36;;;;;;;6.45;2.30;;;21.30;93.40;;;;;;5075910;28;20013;-72
2023/07/22 04:24:02;;;;;;;8.70;2.30;;;21.30;93.40;;;;;;5076211;28;20107;-73
2023/07/22 04:26:28;;;;;;;10.30;2.70;;;21.30;93.50;;;;;;5075822;28;20025;-72
2023/07/22 04:28:53;;;;;;;12.52;3.08;;;21.30;93.90;;;;;;5057690;28;20064;-72
2023/07/22 04:31:19;;;;;;;10.48;1.95;;;21.30;93.60;;;;;;5075709;28;20016;-72
2023/07/22 04:33:45;;;;;;;6.00;2.20;;;21.30;93.60;;;;;;5075612;28;20028;-72
2023/07/22 04:36:11;;;;;;;3.65;1.88;;;21.40;93.60;;;;;;5075611;28;20028;-73
2023/07/22 04:38:36;;;;;;;5.30;2.03;;;21.30;93.70;;;;;;5075656;28;20078;-73
2023/07/22 04:41:04;;;;;;;7.13;2.63;;;21.40;93.70;;;;;;5075387;28;20074;-72
2023/07/22 04:43:30;;;;;;;8.02;2.08;;;21.40;93.70;;;;;;5075493;28;20055;-72
2023/07/22 04:45:56;;;;;;;7.18;2.75;;;21.40;93.80;;;;;;5075468;28;20030;-73
2023/07/22 04:48:23;;;;;;;7.35;2.17;;;21.40;93.80;;;;;;5075470;28;20398;-73
2023/07/22 04:50:49;;;;;;;3.70;2.13;;;21.40;93.80;;;;;;5075850;28;20024;-72
2023/07/22 04:53:15;;;;;;;11.38;2.30;;;21.50;93.80;;;;;;5074244;28;20028;-72
2023/07/22 04:55:41;;;;;;;8.65;2.10;;;21.50;93.80;;;;;;5075602;28;20482;-72
2023/07/22 04:58:11;;;;;;;2.45;1.67;;;21.50;93.70;;;;;;5075154;28;20066;-72
2023/07/22 05:00:39;;;;;;;2.85;1.92;;;21.50;93.80;;;;;;5075111;28;20025;-72
2023/07/22 05:03:05;;;;;;;5.72;2.55;;;21.50;93.90;;;;;;5075229;28;20020;-73
2023/07/22 05:05:32;;;;;;;7.65;2.25;;;21.60;94.00;;;;;;5075167;28;20029;-72
2023/07/22 05:07:58;;;;;;;8.75;2.13;;;21.60;94.10;;;;;;5074990;28;20031;-73
2023/07/22 05:10:23;;;;;;;4.43;2.35;;;21.60;94.20;;;;;;5075100;28;20040;-72
2023/07/22 05:12:49;;;;;;;6.60;2.10;;;21.60;94.30;;;;;;5074927;28;20031;-72
2023/07/22 05:15:15;;;;;;;11.95;2.78;;;21.70;94.30;;;;;;5074764;28;20393;-72
2023/07/22 05:17:41;;;;;;;7.32;2.60;;;21.70;94.30;;;;;;5074747;28;20040;-73
2023/07/22 05:20:10;;;;;;;9.93;2.47;;;21.70;94.40;;;;;;5075082;28;20064;-73
2023/07/22 05:22:37;;;;;;;3.63;2.10;;;21.80;94.50;;;;;;5074978;28;20056;-72
2023/07/22 05:25:04;;;;;;;5.78;2.30;;;21.80;94.40;;;;;;5074891;28;20028;-73
2023/07/22 05:27:30;;;;;;;7.65;2.90;;;21.80;94.00;;;;;;5074519;28;20032;-73
2023/07/22 05:29:56;;;;;;;6.70;2.38;;;21.90;93.60;;;;;;5074670;28;20024;-73
2023/07/22 05:32:22;;;;;;;4.53;2.15;;;21.90;93.30;;;;;;5074536;28;20025;-72
2023/07/22 05:34:47;;;;;;;7.40;2.30;;;22.00;93.30;;;;;;5074454;28;20024;-73
2023/07/22 05:37:13;;;;;;;5.10;2.00;;;22.00;93.40;;;;;;5074471;28;20033;-72
2023/07/22 05:39:39;;;;;;;8.57;1.90;;;22.10;93.50;;;;;;5074629;28;20024;-73
2023/07/22 05:42:05;;;;;;;6.05;1.80;;;22.10;93.50;;;;;;5074581;28;20027;-73
2023/07/22 05:44:31;;;;;;;4.43;2.20;;;22.10;93.40;;;;;;5056459;28;20020;-73
2023/07/22 05:46:57;;;;;;;9.60;2.00;;;22.20;93.40;;;;;;5074337;28;20028;-73
2023/07/22 05:49:23;;;;;;;4.82;1.77;;;22.20;93.30;;;;;;5074259;28;20462;-73
2023/07/22 05:51:49;;;;;;;5.10;2.00;;;22.20;93.20;;;;;;5073996;28;20104;-73
2023/07/22 05:54:14;;;;;;;2.83;1.73;;;22.30;93.30;;;;;;5074274;28;20029;-73
2023/07/22 05:56:41;;;;;;;3.30;1.98;;;22.30;93.20;;;;;;5074148;28;20078;-73
2023/07/22 05:59:07;;;;;;;4.93;2.03;;;22.30;93.00;;;;;;5074218;28;20056;-73
2023/07/22 06:01:33;;;;;;;5.45;1.98;;;22.30;92.90;;;;;;5074581;28;20024;-73
2023/07/22 06:03:58;;;;;;;5.40;2.00;;;22.40;92.70;;;;;;5073715;28;20035;-73
2023/07/22 06:06:24;;;;;;;4.18;1.73;;;22.40;92.60;;;;;;5073849;28;20063;-73
2023/07/22 06:08:50;;;;;;;6.25;2.10;;;22.40;92.60;;;;;;5073937;28;20550;-73
2023/07/22 06:11:17;;;;;;;4.18;1.70;;;22.40;92.50;;;;;;5073683;28;20021;-72
2023/07/22 06:13:43;;;;;;;3.05;1.80;;;22.50;92.30;;;;;;5073595;28;20238;-73
2023/07/22 06:16:09;;;;;;;6.75;1.73;;;22.50;92.10;;;;;;5073724;28;20108;-72
2023/07/22 06:18:34;;;;;;;7.70;2.38;;;22.60;92.00;;;;;;5073594;28;20127;-73
2023/07/22 06:21:00;;;;;;;2.97;1.80;;;22.60;91.80;;;;;;5073873;28;20021;-73
2023/07/22 06:23:26;;;;;;;3.47;1.92;;;22.60;91.70;;;;;;5073625;28;20036;-73
2023/07/22 06:25:52;;;;;;;5.38;2.05;;;22.60;91.60;;;;;;5073518;28;20020;-73
2023/07/22 06:28:17;;;;;;;3.30;2.13;;;22.70;91.50;;;;;;5073300;28;20047;-73
2023/07/22 06:30:43;;;;;;;7.10;2.03;;;22.70;91.20;;;;;;5073483;28;20012;-73
2023/07/22 06:33:09;;;;;;;2.50;2.03;;;22.80;90.90;;;;;;5073622;28;20024;-73
2023/07/22 06:35:35;;;;;;;4.10;1.90;;;22.80;90.90;;;;;;5073398;28;20019;-73
2023/07/22 06:38:01;;;;;;;2.40;1.95;;;22.90;90.80;;;;;;5073430;28;20024;-73
2023/07/22 06:40:27;;;;;;;6.70;2.10;;;22.90;90.70;;;;;;5073187;28;20023;-73
2023/07/22 06:42:52;;;;;;;4.47;2.28;;;22.90;90.60;;;;;;5073425;28;20028;-73
2023/07/22 06:45:19;;;;;;;2.53;1.83;;;23.00;90.40;;;;;;5073296;28;20017;-73
2023/07/22 06:47:46;;;;;;;3.85;2.10;;;23.00;90.00;;;;;;5055283;28;20032;-73
2023/07/22 06:50:12;;;;;;;4.03;2.00;;;23.00;88.20;;;;;;5073272;28;20585;-73
2023/07/22 06:52:38;;;;;;;3.00;1.90;;;23.10;87.40;;;;;;5073070;28;20111;-73
2023/07/22 06:55:04;;;;;;;5.60;2.00;;;23.10;87.00;;;;;;5073300;28;20067;-73
2023/07/22 06:57:30;;;;;;;4.97;2.00;;;23.20;87.10;;;;;;5072991;28;20474;-73
2023/07/22 06:59:56;;;;;;;5.25;2.22;;;23.20;87.60;;;;;;5072924;28;20112;-73
2023/07/22 07:02:22;;;;;;;2.38;2.15;;;23.30;87.20;;;;;;5072729;28;20027;-73
2023/07/22 07:04:49;;;;;;;3.35;2.25;;;23.30;87.10;;;;;;5073157;28;20068;-72
2023/07/22 07:07:15;;;;;;;3.72;2.10;;;23.30;87.10;;;;;;5073114;28;20024;-73
2023/07/22 07:09:41;;;;;;;3.90;2.22;;;23.40;86.50;;;;;;5054812;28;20410;-73
2023/07/22 07:12:07;;;;;;;4.18;2.00;;;23.40;85.70;;;;;;5072749;28;20016;-73
2023/07/22 07:14:33;;;;;;;3.08;2.00;;;23.40;84.90;;;;;;5072346;28;20025;-73
2023/07/22 07:17:00;;;;;;;3.55;1.80;;;23.50;84.30;;;;;;5072314;28;20037;-73
2023/07/22 07:19:26;;;;;;;4.40;2.42;;;23.50;83.90;;;;;;5054918;28;20147;-73
2023/07/22 07:21:52;;;;;;;5.05;2.08;;;23.50;83.90;;;;;;5072861;28;20474;-73
2023/07/22 07:24:18;;;;;;;3.17;1.90;;;23.60;84.50;;;;;;5072626;28;20035;-72
2023/07/22 07:26:44;;;;;;;4.90;2.30;;;23.60;84.80;;;;;;5072829;28;20025;-72
2023/07/22 07:29:10;;;;;;;3.72;2.00;;;23.60;85.00;;;;;;5072716;28;20059;-72
2023/07/22 07:31:37;;;;;;;2.88;2.10;;;23.60;84.50;;;;;;5072790;28;20043;-72
2023/07/22 07:34:03;;;;;;;5.13;2.03;;;23.70;83.80;;;;;;5072508;28;20025;-73
2023/07/22 07:36:29;;;;;;;3.17;2.03;;;23.70;83.60;;;;;;5072615;28;20046;-73
2023/07/22 07:38:55;;;;;;;3.50;2.10;;;23.70;84.00;;;;;;5072273;28;20021;-73
2023/07/22 07:41:21;;;;;;;3.13;2.10;;;23.70;84.40;;;;;;5072525;28;20103;-72
2023/07/22 07:43:47;;;;;;;2.53;1.80;;;23.80;84.40;;;;;;5072713;28;20060;-73
2023/07/22 07:46:22;;;;;;;3.97;2.35;;;23.90;84.90;;;;;;5072658;28;20056;-72
2023/07/22 07:48:49;;;;;;;2.90;1.90;;;23.90;84.30;;;;;;5072441;28;20024;-73
2023/07/22 07:51:16;;;;;;;6.38;2.50;;;23.90;84.90;;;;;;5054447;28;20029;-73
2023/07/22 07:53:44;;;;;;;5.15;2.10;;;23.90;83.80;;;;;;5072563;28;20079;-73
2023/07/22 07:56:10;;;;;;;3.40;2.13;;;23.90;83.60;;;;;;5072636;28;20429;-72
2023/07/22 07:58:37;;;;;;;4.55;2.13;;;24.00;83.00;;;;;;5072446;28;20043;-72
2023/07/22 08:01:04;;;;;;;3.45;1.98;;;24.00;81.30;;;;;;5072111;28;20048;-72
2023/07/22 08:03:30;;;;;;;4.47;2.30;;;24.10;80.60;;;;;;5072398;28;20024;-73
2023/07/22 08:05:56;;;;;;;7.57;3.08;;;24.10;81.30;;;;;;5072642;28;20175;-73
2023/07/22 08:08:22;;;;;;;3.20;2.25;;;24.10;81.50;;;;;;5072252;28;20107;-73
2023/07/22 08:10:57;;;;;;;2.85;2.13;;;24.20;80.80;;;;;;5072139;28;20016;-73
2023/07/22 08:13:23;;;;;;;2.85;1.92;;;24.20;80.70;;;;;;5072095;28;20482;-73
2023/07/22 08:15:48;;;;;;;4.03;2.15;;;24.20;80.40;;;;;;5054201;28;20056;-73
2023/07/22 08:18:14;;;;;;;3.50;2.65;;;24.20;80.40;;;;;;5071862;28;20056;-73
2023/07/22 08:20:40;;;;;;;3.88;2.45;;;24.30;79.40;;;;;;5072298;28;20021;-73
2023/07/22 08:23:06;;;;;;;3.78;2.20;;;24.30;80.30;;;;;;5072332;28;20024;-73
2023/07/22 08:25:32;;;;;;;3.70;2.33;;;24.40;79.90;;;;;;5072293;28;20067;-73
2023/07/22 08:27:57;;;;;;;4.75;2.38;;;24.40;79.20;;;;;;5075396;28;20047;-73
2023/07/22 08:30:23;;;;;;;3.67;2.25;;;24.40;77.90;;;;;;5075955;28;20033;-73
2023/07/22 08:32:49;;;;;;;4.32;2.08;;;24.50;78.20;;;;;;5075638;28;20020;-72
2023/07/22 08:35:17;;;;;;;4.85;2.25;;;24.50;78.40;;;;;;5075633;28;20023;-72
2023/07/22 08:37:43;;;;;;;4.05;2.30;;;24.60;78.30;;;;;;5075817;28;20054;-73
2023/07/22 08:40:10;;;;;;;3.25;2.00;;;24.60;77.40;;;;;;5075633;28;20387;-73
2023/07/22 08:42:37;;;;;;;6.70;2.28;;;24.70;76.30;;;;;;5075670;28;20078;-72
2023/07/22 08:45:06;;;;;;;3.55;2.33;;;24.70;75.80;;;;;;5075742;28;20036;-72
2023/07/22 08:47:35;;;;;;;3.38;2.08;;;24.70;75.50;;;;;;5075293;28;20544;-72
2023/07/22 08:50:02;;;;;;;4.15;2.55;;;24.70;75.80;;;;;;5075535;28;20129;-73
2023/07/22 08:52:28;;;;;;;3.60;1.98;;;24.80;75.70;;;;;;5075296;28;20024;-72
2023/07/22 08:54:55;;;;;;;3.42;2.22;;;24.80;76.40;;;;;;5075425;28;20028;-73
2023/07/22 08:57:21;;;;;;;5.35;1.98;;;24.90;76.20;;;;;;5075521;28;20035;-72
2023/07/22 08:59:48;;;;;;;4.13;2.25;;;24.90;75.60;;;;;;5075264;28;20032;-73
2023/07/22 09:02:15;;;;;;;4.38;1.92;;;25.00;75.40;;;;;;5075274;28;20028;-73
2023/07/22 09:04:42;;;;;;;2.88;2.03;;;25.00;74.80;;;;;;5075106;28;20032;-73
2023/07/22 09:07:09;;;;;;;5.80;2.25;;;25.00;74.40;;;;;;5074976;28;20024;-72
2023/07/22 09:09:35;;;;;;;2.47;2.10;;;25.10;74.80;;;;;;5057087;28;20067;-72
2023/07/22 09:12:02;;;;;;;3.70;2.38;;;25.00;74.10;;;;;;5075113;28;20381;-73
2023/07/22 09:14:29;;;;;;;5.13;2.40;;;25.10;74.30;;;;;;5057030;28;20032;-73
2023/07/22 09:16:55;;;;;;;2.17;1.88;;;25.10;74.50;;;;;;5092395;22;20074;-70
2023/07/22 09:19:21;;;;;;;3.20;2.00;;;25.10;74.80;;;;;;5075113;28;20032;-71
2023/07/22 09:21:47;;;;;;;3.47;2.17;;;25.10;73.20;;;;;;5075046;28;20108;-71
2023/07/22 09:24:25;;;;;;;3.17;2.05;;;25.20;73.20;;;;;;5057014;28;20078;-71
2023/07/22 09:26:51;;;;;;;2.67;1.80;;;25.20;73.90;;;;;;5074812;28;20027;-71
2023/07/22 09:29:17;;;;;;;4.25;2.10;;;25.30;73.60;;;;;;5074452;28;20543;-71
2023/07/22 09:31:52;;;;;;;2.70;2.10;;;25.20;73.60;;;;;;5074752;28;20028;-71
2023/07/22 09:34:18;;;;;;;2.90;2.13;;;25.30;73.30;;;;;;5074580;28;20048;-71
2023/07/22 09:36:55;;;;;;;5.28;2.40;;;25.30;73.70;;;;;;5074748;28;20067;-70
2023/07/22 09:39:21;;;;;;;2.90;2.20;;;25.30;73.80;;;;;;5073978;28;20118;-71
2023/07/22 09:41:48;;;;;;;5.57;2.13;;;25.40;73.60;;;;;;5074695;28;20013;-71
2023/07/22 09:44:13;;;;;;;4.07;2.28;;;25.40;73.90;;;;;;5074633;28;20024;-71
2023/07/22 09:46:40;;;;;;;3.13;1.88;;;25.40;72.90;;;;;;5074663;28;20056;-71
2023/07/22 09:49:08;;;;;;;4.35;2.17;;;25.40;72.70;;;;;;5074496;28;20150;-71
2023/07/22 09:51:36;;;;;;;5.15;2.30;;;25.50;73.10;;;;;;5074470;28;20070;-71
2023/07/22 09:54:04;;;;;;;4.03;2.20;;;25.50;72.00;;;;;;5074425;28;20021;-71
2023/07/22 09:56:30;;;;;;;5.03;1.98;;;25.60;72.50;;;;;;5073760;28;20024;-71
2023/07/22 09:58:59;;;;;;;2.50;2.10;;;25.60;73.60;;;;;;5074179;28;20029;-72
2023/07/22 10:01:26;;;;;;;3.28;1.88;;;25.60;72.90;;;;;;5074388;28;20012;-71
2023/07/22 10:03:56;;;;;;;4.20;2.28;;;25.70;73.90;;;;;;5074324;28;20382;-71
2023/07/22 10:06:27;;;;;;;5.55;1.85;;;25.80;72.80;;;;;;5074106;28;20039;-71
2023/07/22 10:08:56;;;;;;;6.28;2.03;;;25.80;72.60;;;;;;5074041;28;20394;-71
2023/07/22 10:11:25;;;;;;;3.08;1.85;;;25.90;71.30;;;;;;5073760;28;20021;-72
2023/07/22 10:13:52;;;;;;;3.50;2.30;;;25.90;71.80;;;;;;5073975;28;20432;-71
2023/07/22 10:16:18;;;;;;;5.07;2.53;;;26.00;71.40;;;;;;5073732;28;20044;-71
2023/07/22 10:18:46;;;;;;;3.58;2.00;;;26.00;70.70;;;;;;5073984;28;20099;-71
2023/07/22 10:21:13;;;;;;;3.17;2.22;;;26.00;71.10;;;;;;5073926;28;20485;-71
2023/07/22 10:23:40;;;;;;;6.63;2.58;;;26.10;70.80;;;;;;5073676;28;20021;-71
2023/07/22 10:26:07;;;;;;;5.53;2.10;;;26.20;72.80;;;;;;5073705;28;20024;-71
2023/07/22 10:28:33;;;;;;;3.38;2.00;;;26.20;71.50;;;;;;5073539;28;20040;-71
2023/07/22 10:30:59;;;;;;;2.80;2.10;;;26.20;70.60;;;;;;5073711;28;20025;-71
2023/07/22 10:33:26;;;;;;;2.42;2.00;;;26.30;70.50;;;;;;5073655;28;20501;-71
2023/07/22 10:36:05;;;;;;;4.15;2.25;;;26.30;70.00;;;;;;5073423;28;20415;-71
2023/07/22 10:38:32;;;;;;;4.55;2.17;;;26.30;69.50;;;;;;5073609;28;20028;-71
2023/07/22 10:40:58;;;;;;;3.90;2.53;;;26.40;70.60;;;;;;5073509;28;20024;-71
2023/07/22 10:43:26;;;;;;;3.58;2.17;;;26.40;71.20;;;;;;5073419;28;20024;-72
2023/07/22 10:45:58;;;;;;;2.25;2.00;;;26.50;70.80;;;;;;5073226;28;20056;-73
2023/07/22 10:48:29;;;;;;;3.38;2.15;;;26.50;71.20;;;;;;5055056;28;20056;-72
2023/07/22 10:51:02;;;;;;;;;;;26.60;71.30;;;;;;5073837;28;20039;-72
2023/07/22 10:53:30;;;;;;;3.60;2.25;;;26.60;70.50;;;;;;5073461;28;20418;-71
2023/07/22 10:56:14;;;;;;;4.13;2.30;;;26.70;70.40;;;;;;5073276;28;20052;-73
2023/07/22 10:58:48;;;;;;;4.65;1.88;;;26.60;69.20;;;;;;5073163;28;20033;-73
2023/07/22 11:01:25;;;;;;;2.35;1.95;;;26.70;69.70;;;;;;5072882;28;20544;-73
2023/07/22 11:04:15;;;;;;;5.78;2.33;;;26.70;70.80;;;;;;5072995;28;20118;-71
2023/07/22 11:06:45;;;;;;;3.80;2.17;;;26.80;70.60;;;;;;5072941;28;20073;-71
2023/07/22 11:12:02;;;;;;;3.72;2.40;;;26.80;68.70;;;;;;5073042;28;20033;-71
2023/07/22 11:14:33;;;;;;;6.43;2.30;;;26.90;69.90;;;;;;5055086;28;20078;-71
2023/07/22 11:17:01;;;;;;;5.00;2.20;;;26.90;69.90;;;;;;5072790;28;20075;-71
2023/07/22 11:19:27;;;;;;;3.53;2.30;;;27.00;70.00;;;;;;5072949;28;20028;-70
2023/07/22 11:21:54;;;;;;;3.72;2.10;;;27.00;69.40;;;;;;5072861;28;20066;-71
2023/07/22 11:24:22;;;;;;;3.25;2.20;;;27.00;69.50;;;;;;5054972;28;20028;-70
2023/07/22 11:26:49;;;;;;;2.65;2.00;;;27.10;68.60;;;;;;5072741;28;20040;-71
2023/07/22 11:29:16;;;;;;;4.25;2.25;;;27.10;69.20;;;;;;5072860;28;20138;-71
2023/07/22 11:31:46;;;;;;;4.50;2.50;;;27.10;69.70;;;;;;5054718;28;20486;-71
2023/07/22 11:34:14;;;;;;;3.70;2.08;;;27.10;69.10;;;;;;5073040;28;20031;-72
2023/07/22 11:36:40;;;;;;;3.50;2.33;;;27.00;68.20;;;;;;5072915;28;20025;-70
2023/07/22 11:39:14;;;;;;;4.53;2.53;;;27.00;68.00;;;;;;5072780;28;20517;-71
2023/07/22 11:41:42;;;;;;;3.78;2.47;;;27.00;68.90;;;;;;5072806;28;20040;-70
2023/07/22 11:44:09;;;;;;;4.82;1.92;;;27.10;68.30;;;;;;5072704;28;20486;-71
2023/07/22 11:46:46;;;;;;;4.35;2.15;;;27.10;68.30;;;;;;5054765;28;20382;-71
2023/07/22 11:49:11;;;;;;;6.60;2.50;;;27.20;67.90;;;;;;5072519;28;20541;-71
2023/07/22 11:51:42;;;;;;;3.53;1.95;;;27.20;68.50;;;;;;5072563;28;20104;-73
2023/07/22 11:54:08;;;;;;;4.30;2.38;;;27.30;68.50;;;;;;5054759;28;20474;-74
2023/07/22 11:56:34;;;;;;;3.38;2.13;;;27.20;67.20;;;;;;5072528;28;20047;-73
2023/07/22 11:59:00;;;;;;;4.95;2.05;;;27.20;67.30;;;;;;5072501;28;20020;-74
2023/07/22 12:01:32;;;;;;;4.32;2.30;;;27.10;67.00;;;;;;5073374;28;20025;-74
2023/07/22 12:03:58;;;;;;;6.05;2.60;;;27.10;67.20;;;;;;5076549;28;20025;-73
2023/07/22 12:06:27;;;;;;;4.40;2.28;;;27.10;67.30;;;;;;5076224;28;20035;-73
2023/07/22 12:08:53;;;;;;;4.00;2.25;;;27.00;67.50;;;;;;5076374;28;20028;-73
2023/07/22 12:11:25;;;;;;;4.00;2.30;;;27.00;67.50;;;;;;5076508;28;20020;-74
2023/07/22 12:14:12;;;;;;;;;;;26.90;68.20;;;;;;5076497;28;20101;-73
2023/07/22 12:16:40;;;;;;;2.97;2.20;;;26.90;68.30;;;;;;5075993;28;20005;-71
2023/07/22 12:19:08;;;;;;;4.03;2.47;;;26.80;68.10;;;;;;5058346;28;20474;-71
2023/07/22 12:21:34;;;;;;;2.80;2.00;;;26.80;68.50;;;;;;5076044;28;20480;-71
2023/07/22 12:24:00;;;;;;;5.68;2.47;;;26.80;68.80;;;;;;5076043;28;20028;-71
2023/07/22 12:26:26;;;;;;;4.15;2.50;;;26.70;68.90;;;;;;5075769;28;20035;-71
2023/07/22 12:28:52;;;;;;;4.00;2.38;;;26.70;69.60;;;;;;5075930;28;20037;-72
2023/07/22 12:31:18;;;;;;;3.60;2.53;;;26.60;70.00;;;;;;5076036;28;20035;-73
2023/07/22 12:33:44;;;;;;;5.95;2.58;;;26.60;70.30;;;;;;5075997;28;20071;-71
2023/07/22 12:36:09;;;;;;;4.35;2.60;;;26.50;70.00;;;;;;5075841;28;20028;-71
2023/07/22 12:38:35;;;;;;;5.32;2.50;;;26.50;69.80;;;;;;5075755;28;20024;-73
2023/07/22 12:41:02;;;;;;;5.50;2.60;;;26.50;70.00;;;;;;5075768;28;20491;-73
2023/07/22 12:43:28;;;;;;;3.42;2.17;;;26.50;70.40;;;;;;5076082;28;20055;-73
2023/07/22 12:45:53;;;;;;;7.22;2.67;;;26.40;70.80;;;;;;5075821;28;20056;-74
2023/07/22 12:48:19;;;;;;;2.90;2.42;;;26.40;71.10;;;;;;5075784;28;20107;-73
2023/07/22 12:50:47;;;;;;;4.28;2.50;;;26.30;71.80;;;;;;5075599;28;20493;-71